Time;durP1;ratioP1;P1;durP2;ratioP2;P2;SDS_P1;SDS_P2;PMS_P1;PMS_P2;Temp;Humidity;BMP_temperature;BMP_pressure;BME280_temperature;BME280_humidity;BME280_pressure;Samples;Min_cycle;Max_cycle;Signal;HPM_P1;HPM_P2
2023/08/14 00:02:02;;;;;;;1.40;1.40;;;23.60;75.80;;;;;;5066643;28;43514;-70
2023/08/14 00:04:30;;;;;;;1.83;1.73;;;23.60;76.20;;;;;;5068739;28;43404;-70
2023/08/14 00:06:58;;;;;;;1.60;1.60;;;23.50;76.20;;;;;;5065806;27;43597;-70
2023/08/14 00:09:27;;;;;;;1.40;1.40;;;23.50;76.30;;;;;;5067051;28;44737;-70
2023/08/14 00:11:55;;;;;;;1.53;1.53;;;23.50;76.40;;;;;;5066812;28;43490;-71
2023/08/14 00:14:23;;;;;;;1.50;1.50;;;23.50;76.50;;;;;;5067515;28;43635;-70
2023/08/14 00:16:51;;;;;;;1.50;1.50;;;23.40;76.70;;;;;;5071685;28;43934;-72
2023/08/14 00:19:19;;;;;;;1.40;1.40;;;23.40;76.70;;;;;;5076894;28;43492;-72
2023/08/14 00:21:47;;;;;;;1.50;1.50;;;23.40;76.80;;;;;;5074201;28;43461;-73
2023/08/14 00:24:15;;;;;;;1.57;1.57;;;23.40;76.90;;;;;;5075322;28;43452;-72
2023/08/14 00:26:45;;;;;;;1.57;1.57;;;23.30;76.90;;;;;;5076936;27;45659;-72
2023/08/14 00:29:13;;;;;;;1.50;1.50;;;23.30;77.00;;;;;;5079580;28;43433;-73
2023/08/14 00:31:41;;;;;;;1.30;1.30;;;23.40;76.90;;;;;;5077446;28;43457;-72
2023/08/14 00:34:09;;;;;;;1.20;1.20;;;23.60;76.50;;;;;;5076658;28;43531;-73
2023/08/14 00:36:37;;;;;;;1.40;1.40;;;23.60;76.00;;;;;;5076285;28;45838;-72
2023/08/14 00:39:05;;;;;;;1.33;1.33;;;23.70;75.90;;;;;;5075538;28;44831;-73
2023/08/14 00:41:33;;;;;;;1.30;1.30;;;23.70;76.00;;;;;;5079281;28;43443;-72
2023/08/14 00:44:02;;;;;;;1.50;1.43;;;23.60;76.00;;;;;;5077440;28;43474;-73
2023/08/14 00:46:31;;;;;;;1.60;1.60;;;23.50;76.20;;;;;;5076463;28;43638;-73
2023/08/14 00:48:59;;;;;;;1.40;1.40;;;23.50;76.40;;;;;;5077081;27;45021;-73
2023/08/14 00:51:27;;;;;;;1.30;1.30;;;23.50;76.40;;;;;;5076129;28;43418;-72
2023/08/14 00:53:55;;;;;;;1.20;1.20;;;23.50;76.50;;;;;;5077519;28;43616;-73
2023/08/14 00:56:23;;;;;;;1.50;1.50;;;23.40;76.50;;;;;;5078189;28;43906;-73
2023/08/14 00:58:51;;;;;;;1.60;1.60;;;23.40;76.80;;;;;;5074842;28;44694;-72
2023/08/14 01:04:01;;;;;;;1.50;1.50;;;23.60;76.60;;;;;;5025797;28;46006;-67
2023/08/14 01:06:29;;;;;;;1.50;1.50;;;23.60;75.90;;;;;;5013301;28;45789;-68
2023/08/14 01:08:57;;;;;;;1.40;1.40;;;23.70;75.80;;;;;;5030257;28;43444;-67
2023/08/14 01:11:29;;;;;;;1.53;1.53;;;23.70;75.80;;;;;;5030641;28;43493;-67
2023/08/14 01:14:00;;;;;;;1.30;1.30;;;23.60;75.90;;;;;;5031527;28;43508;-68
2023/08/14 01:16:33;;;;;;;1.30;1.30;;;23.60;76.20;;;;;;5030080;28;44406;-67
2023/08/14 01:19:01;;;;;;;1.50;1.50;;;23.50;76.30;;;;;;5029343;28;43454;-68
2023/08/14 01:21:36;;;;;;;1.53;1.53;;;23.50;76.40;;;;;;5030469;28;43446;-68
2023/08/14 01:24:12;;;;;;;1.37;1.37;;;23.50;76.40;;;;;;5030892;28;43518;-68
2023/08/14 01:26:41;;;;;;;1.37;1.37;;;23.50;76.60;;;;;;5016165;28;46426;-69
2023/08/14 01:29:09;;;;;;;1.37;1.37;;;23.40;76.80;;;;;;5013059;28;44334;-69
2023/08/14 01:31:37;;;;;;;1.43;1.43;;;23.40;76.80;;;;;;5013167;28;44135;-69
2023/08/14 01:34:05;;;;;;;1.23;1.23;;;23.40;76.80;;;;;;5043789;28;43859;-68
2023/08/14 01:36:36;;;;;;;1.40;1.40;;;23.40;76.80;;;;;;5028148;28;46873;-68
2023/08/14 01:39:07;;;;;;;1.53;1.53;;;23.40;77.10;;;;;;5026349;28;44854;-68
2023/08/14 01:41:40;;;;;;;1.40;1.40;;;23.40;77.00;;;;;;5027540;28;43528;-68
2023/08/14 01:44:10;;;;;;;1.43;1.43;;;23.40;76.70;;;;;;5029061;28;43547;-69
2023/08/14 01:46:38;;;;;;;1.20;1.20;;;23.60;76.20;;;;;;5029941;28;43957;-66
2023/08/14 01:49:06;;;;;;;1.27;1.27;;;23.70;75.90;;;;;;5011659;28;44714;-68
2023/08/14 01:51:34;;;;;;;1.20;1.20;;;23.70;75.80;;;;;;5014187;28;43834;-68
2023/08/14 01:54:02;;;;;;;1.13;1.13;;;23.70;75.90;;;;;;5013320;28;43585;-69
2023/08/14 01:56:30;;;;;;;1.30;1.30;;;23.60;76.00;;;;;;5029239;28;43654;-68
2023/08/14 01:58:58;;;;;;;1.47;1.47;;;23.50;76.30;;;;;;5028746;28;43495;-68
2023/08/14 02:01:27;;;;;;;1.20;1.20;;;23.50;76.30;;;;;;5030187;28;43464;-68
2023/08/14 02:03:56;;;;;;;1.30;1.30;;;23.50;76.40;;;;;;5029333;28;43638;-67
2023/08/14 02:06:27;;;;;;;1.47;1.47;;;23.50;76.50;;;;;;5027945;28;45766;-67
2023/08/14 02:08:55;;;;;;;1.30;1.30;;;23.40;76.70;;;;;;5027419;28;44285;-68
2023/08/14 02:11:23;;;;;;;1.40;1.40;;;23.40;76.80;;;;;;5029419;28;44059;-68
2023/08/14 02:13:51;;;;;;;1.37;1.37;;;23.40;76.80;;;;;;5028641;28;43432;-68
2023/08/14 02:16:19;;;;;;;1.43;1.43;;;23.40;76.70;;;;;;5030373;28;43601;-68
2023/08/14 02:18:49;;;;;;;1.37;1.37;;;23.30;76.80;;;;;;5029983;28;43461;-69
2023/08/14 02:21:19;;;;;;;1.33;1.33;;;23.40;77.20;;;;;;5030430;28;43508;-68
2023/08/14 02:23:47;;;;;;;1.40;1.40;;;23.40;77.00;;;;;;5029227;28;43603;-68
2023/08/14 02:26:15;;;;;;;1.43;1.43;;;23.50;76.60;;;;;;5046118;28;44645;-68
2023/08/14 02:28:43;;;;;;;1.23;1.23;;;23.60;76.10;;;;;;5033913;28;43437;-68
2023/08/14 02:31:12;;;;;;;1.30;1.30;;;23.70;75.80;;;;;;5031695;28;43829;-68
2023/08/14 02:33:40;;;;;;;1.20;1.20;;;23.70;75.80;;;;;;5033364;28;43510;-68
2023/08/14 02:36:09;;;;;;;1.40;1.40;;;23.70;75.80;;;;;;5032197;28;43608;-69
2023/08/14 02:38:39;;;;;;;1.33;1.33;;;23.60;76.00;;;;;;5032476;28;44586;-67
2023/08/14 02:41:07;;;;;;;1.47;1.47;;;23.50;76.20;;;;;;5048687;28;43417;-69
2023/08/14 02:43:35;;;;;;;1.37;1.37;;;23.50;76.30;;;;;;5034105;28;43442;-67
2023/08/14 02:46:03;;;;;;;1.30;1.30;;;23.50;76.40;;;;;;5032494;28;44000;-66
2023/08/14 02:48:31;;;;;;;1.40;1.40;;;23.50;76.40;;;;;;5048126;28;44944;-68
2023/08/14 02:51:00;;;;;;;1.20;1.20;;;23.40;76.70;;;;;;5033024;28;43679;-67
2023/08/14 02:53:29;;;;;;;1.27;1.27;;;23.40;76.80;;;;;;5033061;28;43616;-68
2023/08/14 02:55:57;;;;;;;1.10;1.10;;;23.40;76.80;;;;;;5048069;28;45854;-69
2023/08/14 02:58:25;;;;;;;1.20;1.20;;;23.40;76.70;;;;;;5031379;28;44387;-68
2023/08/14 03:00:53;;;;;;;1.30;1.30;;;23.30;76.80;;;;;;5034543;28;43474;-68
2023/08/14 03:03:21;;;;;;;1.20;1.20;;;23.30;77.10;;;;;;5032878;28;43980;-68
2023/08/14 03:05:49;;;;;;;1.20;1.20;;;23.40;76.90;;;;;;5030025;28;45677;-68
2023/08/14 03:08:17;;;;;;;1.20;1.20;;;23.50;76.60;;;;;;5047065;28;44434;-67
2023/08/14 03:10:46;;;;;;;1.30;1.30;;;23.50;76.30;;;;;;5031984;28;43524;-67
2023/08/14 03:13:14;;;;;;;1.30;1.30;;;23.50;76.20;;;;;;5032033;28;43504;-67
2023/08/14 03:15:42;;;;;;;1.30;1.30;;;23.50;76.30;;;;;;5032498;28;43605;-68
2023/08/14 03:18:10;;;;;;;1.20;1.20;;;23.50;76.50;;;;;;5028006;28;44292;-69
2023/08/14 03:20:38;;;;;;;1.33;1.33;;;23.50;76.50;;;;;;5029952;28;43372;-69
2023/08/14 03:23:06;;;;;;;1.20;1.20;;;23.50;76.50;;;;;;5026725;28;43524;-69
2023/08/14 03:25:34;;;;;;;1.40;1.40;;;23.50;76.50;;;;;;5027410;28;45793;-69
2023/08/14 03:28:04;;;;;;;1.40;1.40;;;23.40;76.80;;;;;;5028861;28;43426;-70
2023/08/14 03:30:34;;;;;;;1.40;1.40;;;23.40;76.80;;;;;;5029325;28;43487;-69
2023/08/14 03:33:02;;;;;;;1.30;1.30;;;23.50;76.50;;;;;;5029833;28;43541;-69
2023/08/14 03:35:31;;;;;;;1.40;1.40;;;23.60;76.00;;;;;;5043980;28;46688;-70
2023/08/14 03:37:59;;;;;;;1.37;1.37;;;23.70;75.80;;;;;;5044233;28;44647;-70
2023/08/14 03:40:27;;;;;;;1.30;1.30;;;23.70;75.80;;;;;;5027397;28;43431;-69
2023/08/14 03:42:55;;;;;;;1.10;1.10;;;23.60;75.70;;;;;;5029302;28;43459;-70
2023/08/14 03:45:25;;;;;;;1.20;1.20;;;23.60;75.90;;;;;;5027805;28;44642;-68
2023/08/14 03:47:54;;;;;;;1.37;1.37;;;23.50;76.30;;;;;;5026335;28;45128;-68
2023/08/14 03:50:22;;;;;;;1.60;1.50;;;23.50;76.40;;;;;;5029311;28;43526;-69
2023/08/14 03:52:50;;;;;;;2.20;1.40;;;23.50;76.40;;;;;;5029113;28;43491;-69
2023/08/14 03:55:18;;;;;;;1.30;1.30;;;23.50;76.50;;;;;;5027449;28;44781;-70
2023/08/14 03:57:46;;;;;;;1.47;1.43;;;23.40;77.50;;;;;;5028517;28;43396;-70
2023/08/14 04:00:14;;;;;;;2.53;1.40;;;23.40;76.90;;;;;;5042966;28;43455;-70
2023/08/14 04:02:44;;;;;;;1.40;1.40;;;23.40;76.80;;;;;;5025765;28;44579;-69
2023/08/14 04:05:12;;;;;;;2.77;1.30;;;23.40;76.80;;;;;;5027839;28;43600;-71
2023/08/14 04:07:40;;;;;;;2.10;1.20;;;23.40;76.80;;;;;;5028590;28;43474;-71
2023/08/14 04:10:08;;;;;;;1.40;1.40;;;23.30;77.10;;;;;;5028616;28;43412;-70
2023/08/14 04:12:36;;;;;;;1.50;1.50;;;23.40;77.00;;;;;;5029494;28;43541;-70
2023/08/14 04:15:15;;;;;;;1.53;1.47;;;23.50;76.60;;;;;;5028153;28;43879;-68
2023/08/14 04:17:44;;;;;;;1.40;1.20;;;23.60;76.00;;;;;;5028537;28;43552;-69
2023/08/14 04:20:12;;;;;;;1.40;1.40;;;23.70;75.90;;;;;;5027032;28;43504;-70
2023/08/14 04:22:40;;;;;;;1.50;1.50;;;23.60;75.80;;;;;;5028169;28;43479;-69
2023/08/14 04:25:09;;;;;;;1.40;1.30;;;23.60;75.90;;;;;;5027567;28;44150;-69
2023/08/14 04:27:38;;;;;;;1.30;1.30;;;23.50;76.20;;;;;;5028798;28;44068;-66
2023/08/14 04:30:08;;;;;;;1.27;1.27;;;23.50;76.40;;;;;;5028036;28;43445;-68
2023/08/14 04:32:36;;;;;;;1.27;1.27;;;23.50;76.50;;;;;;5028056;28;43454;-67
2023/08/14 04:35:06;;;;;;;1.30;1.30;;;23.40;76.50;;;;;;5028780;28;43583;-67
2023/08/14 04:37:35;;;;;;;1.33;1.10;;;23.40;76.60;;;;;;5046161;28;44676;-67
2023/08/14 04:40:05;;;;;;;1.30;1.30;;;23.40;77.00;;;;;;5030483;28;43511;-68
2023/08/14 04:42:33;;;;;;;1.40;1.40;;;23.40;76.80;;;;;;5046559;28;43463;-67
2023/08/14 04:45:02;;;;;;;1.20;1.20;;;23.50;76.40;;;;;;5029916;28;46077;-67
2023/08/14 04:47:30;;;;;;;1.27;1.27;;;23.60;76.00;;;;;;5031338;28;43495;-68
2023/08/14 04:50:00;;;;;;;1.20;1.20;;;23.70;75.90;;;;;;5030580;28;43859;-67
2023/08/14 04:52:30;;;;;;;1.10;1.10;;;23.60;76.50;;;;;;5032074;28;43534;-69
2023/08/14 04:54:58;;;;;;;1.20;1.20;;;23.60;75.90;;;;;;5030657;28;45355;-67
2023/08/14 04:57:30;;;;;;;1.33;1.33;;;23.50;76.20;;;;;;5030560;28;43560;-68
2023/08/14 04:59:58;;;;;;;1.40;1.40;;;23.50;76.50;;;;;;5030703;28;43451;-69
2023/08/14 05:02:29;;;;;;;1.40;1.40;;;23.50;76.50;;;;;;5045282;28;43537;-68
2023/08/14 05:04:58;;;;;;;1.20;1.20;;;23.40;76.50;;;;;;5029724;28;46989;-67
2023/08/14 05:07:26;;;;;;;1.40;1.40;;;23.40;76.60;;;;;;5029866;28;45070;-67
2023/08/14 05:09:56;;;;;;;1.20;1.20;;;23.40;76.90;;;;;;5046221;28;44043;-66
2023/08/14 05:12:24;;;;;;;1.40;1.40;;;23.40;76.90;;;;;;5032248;28;43432;-67
2023/08/14 05:14:53;;;;;;;1.30;1.30;;;23.40;76.90;;;;;;5028381;28;45561;-67
2023/08/14 05:17:22;;;;;;;1.33;1.20;;;23.30;76.80;;;;;;5029243;28;45166;-66
2023/08/14 05:19:51;;;;;;;1.20;1.20;;;23.30;77.00;;;;;;5029530;28;43447;-67
2023/08/14 05:22:20;;;;;;;1.30;1.30;;;23.30;77.20;;;;;;5028530;28;44153;-67
2023/08/14 05:24:48;;;;;;;1.30;1.30;;;23.40;77.00;;;;;;5027559;28;45979;-66
2023/08/14 05:27:17;;;;;;;1.43;1.43;;;23.50;76.60;;;;;;5031296;28;43412;-67
2023/08/14 05:29:47;;;;;;;1.90;1.30;;;23.60;76.20;;;;;;5031048;28;43459;-67
2023/08/14 05:32:15;;;;;;;1.33;1.33;;;23.60;76.00;;;;;;5030955;28;43419;-66
2023/08/14 05:34:43;;;;;;;1.40;1.40;;;23.60;76.00;;;;;;5031292;28;43820;-69
2023/08/14 05:37:11;;;;;;;1.10;1.10;;;23.50;76.00;;;;;;5033883;28;43380;-67
2023/08/14 05:39:39;;;;;;;1.20;1.20;;;23.50;76.40;;;;;;5035136;28;43446;-67
2023/08/14 05:42:07;;;;;;;1.30;1.30;;;23.50;76.50;;;;;;5036377;28;43376;-68
2023/08/14 05:44:36;;;;;;;1.27;1.27;;;23.50;76.50;;;;;;5034536;28;43622;-68
2023/08/14 05:47:04;;;;;;;1.43;1.30;;;23.40;76.40;;;;;;5032806;28;43511;-68
2023/08/14 05:49:32;;;;;;;1.50;1.50;;;23.40;76.70;;;;;;5034796;28;43514;-69
2023/08/14 05:52:00;;;;;;;1.30;1.30;;;23.40;77.00;;;;;;5036968;28;43509;-69
2023/08/14 05:54:28;;;;;;;1.23;1.23;;;23.40;76.80;;;;;;5034806;28;43644;-67
2023/08/14 05:56:56;;;;;;;1.37;1.37;;;23.50;76.50;;;;;;5036006;28;43895;-69
2023/08/14 05:59:24;;;;;;;1.20;1.20;;;23.50;76.40;;;;;;5035992;28;43462;-68
2023/08/14 06:01:54;;;;;;;1.40;1.40;;;23.50;76.30;;;;;;5033121;28;44030;-68
2023/08/14 06:04:27;;;;;;;1.30;1.30;;;23.50;76.50;;;;;;5034210;28;43865;-68
2023/08/14 06:06:55;;;;;;;1.20;1.20;;;23.50;76.60;;;;;;5034292;28;43422;-68
2023/08/14 06:09:23;;;;;;;1.10;1.10;;;23.50;76.50;;;;;;5033551;28;43518;-67
2023/08/14 06:11:51;;;;;;;1.20;1.20;;;23.50;76.50;;;;;;5035052;28;43407;-68
2023/08/14 06:14:19;;;;;;;1.30;1.30;;;23.40;76.40;;;;;;5033880;28;43898;-68
2023/08/14 06:16:47;;;;;;;1.40;1.40;;;23.40;76.80;;;;;;5034016;28;43401;-68
2023/08/14 06:19:16;;;;;;;1.20;1.20;;;23.40;76.70;;;;;;5034464;28;43542;-68
2023/08/14 06:21:44;;;;;;;1.30;1.30;;;23.50;76.30;;;;;;5034360;28;43403;-67
2023/08/14 06:24:12;;;;;;;1.67;1.60;;;23.60;76.20;;;;;;5033762;28;43616;-68
2023/08/14 06:26:40;;;;;;;1.47;1.47;;;23.60;76.10;;;;;;5033995;28;43475;-67
2023/08/14 06:29:08;;;;;;;1.27;1.27;;;23.50;76.10;;;;;;5033754;28;43737;-68
2023/08/14 06:31:36;;;;;;;1.43;1.43;;;23.50;76.40;;;;;;5033094;28;43475;-68
2023/08/14 06:34:05;;;;;;;1.20;1.20;;;23.50;76.40;;;;;;5033934;28;43639;-67
2023/08/14 06:36:34;;;;;;;4.07;1.60;;;23.50;76.30;;;;;;5034215;28;43449;-68
2023/08/14 06:39:02;;;;;;;1.40;1.40;;;23.50;76.20;;;;;;5035199;28;43452;-68
2023/08/14 06:41:30;;;;;;;2.63;1.40;;;23.40;76.40;;;;;;5034083;28;44071;-69
2023/08/14 06:44:01;;;;;;;1.47;1.47;;;23.40;76.70;;;;;;5028998;28;45747;-67
2023/08/14 06:46:29;;;;;;;1.70;1.60;;;23.40;76.70;;;;;;5034126;28;43423;-70
2023/08/14 06:48:57;;;;;;;1.30;1.30;;;23.40;76.50;;;;;;5030891;28;43494;-70
2023/08/14 06:51:25;;;;;;;1.87;1.40;;;23.40;76.50;;;;;;5031372;28;43447;-69
2023/08/14 06:53:54;;;;;;;1.50;1.50;;;23.30;76.90;;;;;;5030305;28;44820;-70
2023/08/14 06:56:23;;;;;;;1.30;1.30;;;23.40;76.80;;;;;;5030246;28;43422;-70
2023/08/14 06:58:51;;;;;;;1.40;1.30;;;23.50;76.50;;;;;;5029112;28;43384;-70
2023/08/14 07:01:19;;;;;;;1.73;1.40;;;23.60;76.10;;;;;;5029807;28;43944;-69
2023/08/14 07:03:47;;;;;;;1.50;1.50;;;23.60;75.70;;;;;;5029258;28;43607;-70
2023/08/14 07:06:16;;;;;;;1.40;1.40;;;23.60;75.60;;;;;;5029128;28;43472;-70
2023/08/14 07:08:44;;;;;;;1.50;1.50;;;23.60;75.70;;;;;;5028853;28;44042;-69
2023/08/14 07:11:13;;;;;;;1.30;1.30;;;23.50;75.90;;;;;;5030349;28;43456;-69
2023/08/14 07:13:41;;;;;;;1.67;1.57;;;23.50;76.20;;;;;;5029605;28;43608;-71
2023/08/14 07:16:09;;;;;;;1.40;1.40;;;23.50;76.30;;;;;;5029345;28;43547;-70
2023/08/14 07:18:37;;;;;;;1.40;1.40;;;23.40;76.30;;;;;;5030059;28;43644;-69
2023/08/14 07:21:05;;;;;;;1.40;1.40;;;23.40;76.20;;;;;;5028751;28;44112;-69
2023/08/14 07:23:33;;;;;;;1.53;1.53;;;23.40;76.80;;;;;;5030185;28;44166;-70
2023/08/14 07:26:03;;;;;;;1.90;1.80;;;23.40;76.80;;;;;;5029763;28;43481;-70
2023/08/14 07:28:33;;;;;;;2.30;2.07;;;23.40;76.70;;;;;;5030060;28;43427;-69
2023/08/14 07:31:01;;;;;;;4.93;3.10;;;23.30;76.50;;;;;;5029436;28;43579;-70
2023/08/14 07:33:29;;;;;;;7.40;3.33;;;23.30;76.90;;;;;;5028882;28;43687;-70
2023/08/14 07:35:58;;;;;;;8.23;4.23;;;23.30;77.00;;;;;;5030180;28;43976;-70
2023/08/14 07:38:26;;;;;;;6.27;3.50;;;23.40;76.80;;;;;;5029734;28;43455;-69
2023/08/14 07:40:54;;;;;;;7.87;3.77;;;23.50;76.40;;;;;;5029599;28;44128;-69
2023/08/14 07:43:22;;;;;;;8.03;3.83;;;23.60;76.30;;;;;;5027446;28;43932;-69
2023/08/14 07:45:52;;;;;;;10.50;4.10;;;23.50;76.10;;;;;;5025518;28;43571;-68
2023/08/14 07:48:20;;;;;;;9.97;4.53;;;23.50;76.40;;;;;;5028327;28;44470;-69
2023/08/14 07:50:52;;;;;;;7.23;4.53;;;23.50;76.50;;;;;;5030867;28;43775;-69
2023/08/14 07:53:20;;;;;;;8.97;4.30;;;23.50;76.50;;;;;;5029463;28;43891;-69
2023/08/14 07:55:49;;;;;;;11.13;4.83;;;23.50;76.40;;;;;;5028683;28;44575;-69
2023/08/14 07:58:17;;;;;;;10.10;4.80;;;23.50;76.40;;;;;;5028715;28;43482;-69
2023/08/14 08:00:45;;;;;;;11.27;4.90;;;23.40;76.70;;;;;;5031805;28;43446;-69
2023/08/14 08:03:14;;;;;;;9.37;5.10;;;23.40;76.80;;;;;;5028265;28;43926;-69
2023/08/14 08:05:42;;;;;;;10.50;5.20;;;23.40;76.50;;;;;;5030058;28;43438;-73
2023/08/14 08:08:11;;;;;;;10.27;4.80;;;23.50;76.40;;;;;;5031018;28;43434;-68
2023/08/14 08:10:39;;;;;;;13.67;5.10;;;23.50;76.40;;;;;;5029253;28;43773;-68
2023/08/14 08:13:07;;;;;;;10.37;4.83;;;23.50;76.50;;;;;;5028953;28;43799;-68
2023/08/14 08:15:34;;;;;;;11.63;5.40;;;23.40;76.60;;;;;;5027178;28;43417;-68
2023/08/14 08:18:03;;;;;;;9.00;4.93;;;23.40;76.60;;;;;;5028243;28;43348;-69
2023/08/14 08:20:32;;;;;;;8.67;4.97;;;23.50;76.60;;;;;;5028535;28;43464;-67
2023/08/14 08:23:00;;;;;;;7.80;4.53;;;23.40;76.50;;;;;;5029195;28;43704;-67
2023/08/14 08:25:28;;;;;;;9.83;5.27;;;23.40;76.90;;;;;;5029612;28;44043;-67
2023/08/14 08:27:56;;;;;;;9.93;5.43;;;23.40;77.00;;;;;;5028542;28;43458;-67
2023/08/14 08:30:24;;;;;;;9.67;4.77;;;23.50;76.60;;;;;;5027508;28;43469;-68
2023/08/14 08:32:52;;;;;;;7.50;5.00;;;23.60;76.20;;;;;;5027934;28;43979;-68
2023/08/14 08:35:20;;;;;;;11.97;5.53;;;23.60;75.80;;;;;;5027683;28;43522;-67
2023/08/14 08:37:50;;;;;;;7.93;4.87;;;23.60;75.80;;;;;;5027650;28;43510;-67
2023/08/14 08:40:18;;;;;;;9.07;4.67;;;23.60;75.90;;;;;;5027125;28;43429;-68
2023/08/14 08:42:46;;;;;;;8.87;4.97;;;23.50;75.90;;;;;;5027327;28;43928;-68
2023/08/14 08:45:14;;;;;;;8.37;4.87;;;23.50;76.40;;;;;;5028548;28;43452;-68
2023/08/14 08:47:43;;;;;;;9.50;5.10;;;23.50;76.50;;;;;;5028190;28;43487;-67
2023/08/14 08:50:11;;;;;;;8.27;5.10;;;23.40;76.50;;;;;;5029443;28;44071;-67
2023/08/14 08:52:39;;;;;;;9.57;5.37;;;23.40;76.40;;;;;;5028403;28;43592;-67
2023/08/14 08:55:09;;;;;;;9.67;5.40;;;23.30;76.70;;;;;;5028167;28;43355;-68
2023/08/14 08:57:38;;;;;;;7.97;5.00;;;23.30;76.90;;;;;;5027172;28;44165;-66
2023/08/14 09:00:07;;;;;;;7.47;4.90;;;23.30;76.90;;;;;;5028047;28;43615;-68
2023/08/14 09:02:36;;;;;;;6.97;4.70;;;23.30;76.80;;;;;;5026507;28;43611;-67
2023/08/14 09:05:04;;;;;;;8.10;5.07;;;23.30;76.90;;;;;;5026306;28;43559;-66
2023/08/14 09:07:33;;;;;;;7.70;4.73;;;23.30;77.20;;;;;;5026917;28;43494;-68
2023/08/14 09:10:01;;;;;;;8.00;4.60;;;23.30;77.00;;;;;;5027006;28;43473;-68
2023/08/14 09:12:31;;;;;;;7.97;4.80;;;23.40;76.70;;;;;;5027871;28;43587;-67
2023/08/14 09:15:04;;;;;;;7.93;4.97;;;23.60;76.20;;;;;;5028252;28;43459;-68
2023/08/14 09:17:32;;;;;;;8.33;4.63;;;23.60;75.80;;;;;;5028463;28;43486;-69
2023/08/14 09:20:00;;;;;;;5.83;4.47;;;23.60;75.70;;;;;;5030283;28;43507;-67
2023/08/14 09:22:42;;;;;;;6.10;4.37;;;23.70;75.90;;;;;;5034501;28;43669;-70
2023/08/14 09:25:10;;;;;;;6.87;4.23;;;23.60;76.10;;;;;;5036165;28;43549;-67
2023/08/14 09:27:39;;;;;;;7.63;4.53;;;23.50;76.40;;;;;;5034603;28;43473;-68
2023/08/14 09:30:08;;;;;;;6.43;4.47;;;23.50;76.50;;;;;;5034474;28;43492;-67
2023/08/14 09:32:36;;;;;;;6.30;4.23;;;23.40;76.40;;;;;;5034406;28;43930;-68
2023/08/14 09:35:06;;;;;;;5.27;4.50;;;23.40;76.50;;;;;;5034087;28;43568;-69
2023/08/14 09:37:35;;;;;;;5.93;4.10;;;23.30;76.90;;;;;;5034480;28;43383;-68
2023/08/14 09:40:15;;;;;;;5.73;4.30;;;23.40;77.00;;;;;;5035439;28;43486;-68
2023/08/14 09:42:45;;;;;;;4.90;4.40;;;23.30;76.90;;;;;;5035064;28;43702;-67
2023/08/14 09:45:13;;;;;;;5.53;4.67;;;23.30;77.50;;;;;;5034468;28;43582;-67
2023/08/14 09:47:42;;;;;;;5.10;4.63;;;23.30;77.20;;;;;;5035639;28;43988;-67
2023/08/14 09:50:12;;;;;;;5.23;4.50;;;23.30;77.30;;;;;;5035594;28;44556;-68
2023/08/14 09:52:40;;;;;;;6.17;4.53;;;23.40;77.10;;;;;;5034844;28;43896;-68
2023/08/14 09:55:09;;;;;;;7.10;4.97;;;23.50;76.60;;;;;;5033605;28;45450;-67
2023/08/14 09:57:38;;;;;;;9.80;4.83;;;23.60;76.20;;;;;;5033139;28;43764;-67
2023/08/14 10:00:11;;;;;;;7.57;4.70;;;23.60;76.10;;;;;;5034384;28;43463;-67
2023/08/14 10:02:39;;;;;;;4.93;4.43;;;23.60;76.10;;;;;;5032571;28;45994;-66
2023/08/14 10:05:09;;;;;;;5.20;3.97;;;23.50;76.10;;;;;;5033195;28;43434;-68
2023/08/14 10:07:38;;;;;;;5.03;4.00;;;23.50;76.50;;;;;;5031448;28;43508;-67
2023/08/14 10:10:06;;;;;;;5.50;4.53;;;23.40;76.50;;;;;;5032071;28;43450;-67
2023/08/14 10:12:38;;;;;;;5.30;4.50;;;23.40;76.50;;;;;;5032216;28;43632;-68
2023/08/14 10:15:09;;;;;;;6.13;4.70;;;23.40;76.60;;;;;;5034314;28;44573;-68
2023/08/14 10:17:43;;;;;;;5.33;4.70;;;23.30;76.80;;;;;;5032761;28;43447;-68
2023/08/14 10:20:11;;;;;;;5.20;4.23;;;23.30;77.00;;;;;;5033063;28;43657;-68
2023/08/14 10:22:40;;;;;;;4.43;4.00;;;23.40;76.90;;;;;;5032747;28;43628;-68
2023/08/14 10:25:08;;;;;;;5.27;4.40;;;23.50;76.60;;;;;;5033380;28;43430;-68
2023/08/14 10:27:36;;;;;;;6.10;4.30;;;23.50;76.50;;;;;;5032424;28;43462;-68
2023/08/14 10:30:09;;;;;;;4.30;3.90;;;23.50;76.40;;;;;;5033000;28;43956;-68
2023/08/14 10:32:37;;;;;;;4.10;3.70;;;23.40;76.70;;;;;;5032208;28;44362;-67
2023/08/14 10:35:06;;;;;;;5.23;4.23;;;23.40;76.70;;;;;;5031512;28;44670;-66
2023/08/14 10:37:42;;;;;;;5.20;4.00;;;23.40;76.60;;;;;;5029948;28;43491;-68
2023/08/14 10:40:19;;;;;;;4.90;4.07;;;23.40;76.60;;;;;;5043749;28;43475;-69
2023/08/14 10:42:47;;;;;;;4.50;4.10;;;23.40;76.70;;;;;;5028527;28;43624;-69
2023/08/14 10:45:19;;;;;;;4.50;4.03;;;23.30;76.90;;;;;;5029191;28;43463;-69
2023/08/14 10:47:47;;;;;;;5.03;4.00;;;23.30;76.90;;;;;;5029179;28;43468;-68
2023/08/14 10:50:16;;;;;;;4.20;3.53;;;23.30;76.90;;;;;;5029106;28;43496;-68
2023/08/14 10:52:48;;;;;;;6.37;4.63;;;23.30;76.90;;;;;;5027699;28;43604;-67
2023/08/14 10:55:17;;;;;;;5.17;4.37;;;23.20;77.30;;;;;;5028206;28;44061;-68
2023/08/14 10:57:48;;;;;;;4.53;4.10;;;23.30;77.30;;;;;;5029833;28;44210;-68
2023/08/14 11:00:22;;;;;;;4.50;4.10;;;23.40;77.00;;;;;;5030123;28;44189;-68
2023/08/14 11:02:53;;;;;;;4.77;4.37;;;23.50;76.40;;;;;;5026975;28;44107;-68
2023/08/14 11:05:21;;;;;;;4.40;4.00;;;23.60;76.10;;;;;;5027762;28;43540;-68
2023/08/14 11:07:59;;;;;;;4.17;3.77;;;23.60;76.10;;;;;;5027754;28;43984;-67
2023/08/14 11:10:27;;;;;;;4.37;3.97;;;23.60;76.10;;;;;;5026863;28;43586;-67
2023/08/14 11:12:57;;;;;;;5.57;4.53;;;23.50;76.20;;;;;;5028095;28;44319;-69
2023/08/14 11:15:26;;;;;;;4.47;4.07;;;23.40;76.60;;;;;;5026978;28;44949;-69
2023/08/14 11:17:54;;;;;;;4.53;4.03;;;23.40;76.70;;;;;;5028853;28;43455;-68
2023/08/14 11:20:22;;;;;;;4.63;4.23;;;23.40;76.70;;;;;;5029737;28;43456;-68
2023/08/14 11:22:50;;;;;;;4.13;3.83;;;23.30;76.60;;;;;;5027001;28;45373;-68
2023/08/14 11:25:18;;;;;;;4.40;4.00;;;23.30;77.00;;;;;;5028735;28;44487;-67
2023/08/14 11:27:49;;;;;;;4.03;3.70;;;23.30;77.10;;;;;;5042930;28;43516;-68
2023/08/14 11:30:17;;;;;;;4.13;3.83;;;23.30;77.20;;;;;;5029520;28;43432;-67
2023/08/14 11:32:47;;;;;;;4.10;3.80;;;23.30;77.00;;;;;;5026927;28;43803;-68
2023/08/14 11:35:15;;;;;;;4.53;4.13;;;23.30;77.20;;;;;;5029153;28;43545;-67
2023/08/14 11:37:44;;;;;;;3.87;3.60;;;23.20;77.40;;;;;;5027861;28;43486;-69
2023/08/14 11:40:15;;;;;;;5.30;4.23;;;23.20;77.30;;;;;;5029483;28;43996;-70
2023/08/14 11:42:43;;;;;;;4.30;3.90;;;23.20;77.20;;;;;;5029101;28;43849;-69
2023/08/14 11:45:11;;;;;;;3.80;3.50;;;23.20;77.10;;;;;;5029038;28;44718;-70
2023/08/14 11:47:44;;;;;;;3.93;3.63;;;23.20;77.50;;;;;;5029624;28;43436;-67
2023/08/14 11:50:14;;;;;;;5.00;4.10;;;23.20;77.50;;;;;;5028854;28;43459;-66
2023/08/14 11:52:42;;;;;;;4.10;3.80;;;23.30;77.20;;;;;;5027891;28;43989;-66
2023/08/14 11:55:10;;;;;;;4.17;3.87;;;23.50;76.80;;;;;;5028713;28;44378;-67
2023/08/14 11:57:38;;;;;;;4.20;3.80;;;23.60;76.30;;;;;;5028013;28;43368;-67
2023/08/14 12:00:10;;;;;;;4.30;3.90;;;23.60;76.00;;;;;;5026834;28;44072;-67
2023/08/14 12:02:39;;;;;;;3.93;3.63;;;23.60;76.00;;;;;;5027705;28;43841;-66
2023/08/14 12:05:08;;;;;;;4.50;4.03;;;23.60;76.10;;;;;;5027474;28;44083;-68
2023/08/14 12:07:37;;;;;;;4.00;3.70;;;23.50;77.10;;;;;;5027308;28;43539;-66
2023/08/14 12:10:07;;;;;;;3.57;3.37;;;23.50;76.60;;;;;;5027011;28;44514;-67
2023/08/14 12:12:35;;;;;;;3.60;3.40;;;23.40;76.50;;;;;;5042636;28;44421;-69
2023/08/14 12:15:07;;;;;;;3.50;3.20;;;23.40;76.50;;;;;;5027403;28;43522;-67
2023/08/14 12:17:37;;;;;;;4.07;3.73;;;23.30;77.10;;;;;;5028501;28;43430;-68
2023/08/14 12:20:10;;;;;;;3.80;3.50;;;23.30;77.00;;;;;;5027441;28;43568;-67
2023/08/14 12:22:39;;;;;;;3.67;3.43;;;23.30;77.00;;;;;;5028410;28;43603;-67
2023/08/14 12:25:11;;;;;;;3.63;3.33;;;23.30;76.90;;;;;;5028522;28;44008;-68
2023/08/14 12:27:39;;;;;;;3.93;3.53;;;23.20;77.00;;;;;;5028001;28;43522;-66
2023/08/14 12:30:11;;;;;;;3.40;3.20;;;23.20;77.40;;;;;;5029533;28;44017;-68
2023/08/14 12:32:45;;;;;;;4.43;4.03;;;23.30;77.30;;;;;;5026599;28;43870;-66
2023/08/14 12:35:13;;;;;;;3.67;3.47;;;23.40;77.60;;;;;;5028362;28;43539;-67
2023/08/14 12:37:42;;;;;;;3.77;3.10;;;23.50;76.40;;;;;;5027830;28;44501;-68
2023/08/14 12:40:11;;;;;;;3.83;3.57;;;23.60;76.10;;;;;;5029128;28;44110;-67
2023/08/14 12:42:39;;;;;;;3.37;3.20;;;23.60;76.10;;;;;;5027040;28;43760;-67
2023/08/14 12:45:07;;;;;;;3.70;3.50;;;23.60;76.20;;;;;;5026722;28;43522;-69
2023/08/14 12:47:36;;;;;;;3.20;3.00;;;23.50;76.30;;;;;;5026801;28;44443;-68
2023/08/14 12:50:04;;;;;;;3.67;3.47;;;23.50;76.70;;;;;;5027561;28;43517;-68
2023/08/14 12:52:32;;;;;;;3.50;3.30;;;23.50;76.70;;;;;;5028872;28;43600;-68
2023/08/14 12:55:01;;;;;;;3.37;3.10;;;23.40;76.60;;;;;;5028477;28;43411;-67
2023/08/14 12:57:33;;;;;;;3.87;3.57;;;23.30;76.60;;;;;;5030296;28;43851;-69